Warning: Javascript must be enabled to use all the features on this page!


Page Loading - Please Wait...

Click to hideNews Bulletins

Peak Streamflow for the Nation

USGS 10351650 TRUCKEE RV AT WADSWORTH, NV

Washoe County, Nevada
Hydrologic Unit Code 16050103
Latitude  39°37'56", Longitude 119°16'56" NAD27
Drainage area 1,728  square miles
Gage datum 4,039.00 feet above NGVD29
Output formats
Table
Graph
Tab-separated file
peakfq (watstore) format
Reselect output format
Water
Year
Date Gage
Height
(feet)
Stream-
flow
(cfs)
1966 1965-11-27 8.48 2,0206
1967 1967-05-22 11.90 6,5806
1968 1968-02-24 8.53 2,3406
1969 1969-01-26 11.31 6,7806
1970 1970-01-24 11.65 7,7906
1971 1971-06-27 8.29 2,4906
1972 1972-05-19 7.38 1,6506
1973 1973-01-17 7.84 2,0506
1974 1974-01-17 9.49 4,2706
1975 1975-05-15 9.38 3,9606
1976 1976-08-01 6.29 1,1306
1977 1977-02-21 4.98 3966
1978 1978-05-15 8.15 2,3406
1979 1979-05-15 7.76 1,7806
1980 1980-01-14 12.41 8,8206
1981 1981-05-19 7.88 1,9706
1982 1981-12-20 11.92 8,2106
1983 1983-03-13   8,0002,6
1984 1983-11-25 11.21 7,4906
1985 1984-11-28 7.51 1,8106
1986 1986-02-19 15.11 16,8006
1994 1994-05-07 7.036 1,6106
1995 1995-03-11 11.99 6,7906
1996 1996-05-18 12.39 7,8206
1997 1997-01-03 19.64 19,1006
1998 1998-03-24 11.38 6,0506
1999 1999-02-09 10.11 4,5606
2000 2000-02-14 7.87 2,2606
2001 2000-11-30 5.87 6146
2002 2002-04-15 6.98 1,4706
2003 2003-05-30 6.77 1,3906
2004 2004-03-23 5.67 6856
2005 2005-05-20 9.90 4,0006
2006 2005-12-31 16.89 14,8006
2007 2006-11-15 6.02 7586
2008 2008-01-05 7.48 1,6706
2009 2009-05-06 7.62 1,9206
2010 2010-06-07 8.26 2,5106
2011 2011-06-23 9.25 3,6906
2012 2012-04-27 7.97 2,2806
2013 2012-12-03 9.56 3,6506
2014 2014-02-10 6.90 1,1406
2015 2015-02-09 7.82 1,7906
2016 2016-01-30 8.74 2,5706
2017 2017-01-09 16.99 14,5006
2018 2018-04-08 11.73 6,0206
2019 2019-02-14 12.38 6,7706
2020 2020-05-18 7.07 1,4906
?
  Peak Gage-Height Qualification Codes.
?
  Peak Streamflow Qualification Codes.